sensor_id;sensor_type;location;lat;lon;timestamp;temperature;humidity
25108;DHT22;13090;53.422;7.670;2022-07-04T00:04:08;17.90;65.60
25108;DHT22;13090;53.422;7.670;2022-07-04T00:09:12;17.80;65.60
25108;DHT22;13090;53.422;7.670;2022-07-04T00:14:15;17.80;66.10
25108;DHT22;13090;53.422;7.670;2022-07-04T00:19:17;17.70;66.00
25108;DHT22;13090;53.422;7.670;2022-07-04T00:24:21;17.70;66.00
25108;DHT22;13090;53.422;7.670;2022-07-04T00:29:23;17.60;66.40
25108;DHT22;13090;53.422;7.670;2022-07-04T00:34:26;17.60;66.50
25108;DHT22;13090;53.422;7.670;2022-07-04T00:39:30;17.60;66.50
25108;DHT22;13090;53.422;7.670;2022-07-04T00:44:33;17.50;66.50
25108;DHT22;13090;53.422;7.670;2022-07-04T00:49:35;17.50;66.40
25108;DHT22;13090;53.422;7.670;2022-07-04T00:54:40;17.40;66.40
25108;DHT22;13090;53.422;7.670;2022-07-04T00:59:42;17.30;66.80
25108;DHT22;13090;53.422;7.670;2022-07-04T01:04:45;17.30;66.70
25108;DHT22;13090;53.422;7.670;2022-07-04T01:09:49;17.30;67.00
25108;DHT22;13090;53.422;7.670;2022-07-04T01:14:52;17.20;67.30
25108;DHT22;13090;53.422;7.670;2022-07-04T01:19:54;17.10;67.00
25108;DHT22;13090;53.422;7.670;2022-07-04T01:24:58;17.10;67.10
25108;DHT22;13090;53.422;7.670;2022-07-04T01:30:01;17.00;67.20
25108;DHT22;13090;53.422;7.670;2022-07-04T01:35:04;17.00;67.10
25108;DHT22;13090;53.422;7.670;2022-07-04T01:40:09;16.90;67.20
25108;DHT22;13090;53.422;7.670;2022-07-04T01:45:12;16.80;67.70
25108;DHT22;13090;53.422;7.670;2022-07-04T01:50:14;16.70;67.60
25108;DHT22;13090;53.422;7.670;2022-07-04T01:55:18;16.70;67.60
25108;DHT22;13090;53.422;7.670;2022-07-04T02:00:21;16.60;67.90
25108;DHT22;13090;53.422;7.670;2022-07-04T02:05:24;16.50;67.80
25108;DHT22;13090;53.422;7.670;2022-07-04T02:10:27;16.50;67.90
25108;DHT22;13090;53.422;7.670;2022-07-04T02:15:31;16.40;68.40
25108;DHT22;13090;53.422;7.670;2022-07-04T02:20:35;16.30;68.50
25108;DHT22;13090;53.422;7.670;2022-07-04T02:25:39;16.30;68.60
25108;DHT22;13090;53.422;7.670;2022-07-04T02:30:41;16.20;68.80
25108;DHT22;13090;53.422;7.670;2022-07-04T02:35:44;16.10;68.80
25108;DHT22;13090;53.422;7.670;2022-07-04T02:40:48;16.10;69.10
25108;DHT22;13090;53.422;7.670;2022-07-04T02:45:50;16.00;69.40
25108;DHT22;13090;53.422;7.670;2022-07-04T02:50:53;16.00;69.20
25108;DHT22;13090;53.422;7.670;2022-07-04T02:55:56;15.90;69.10
25108;DHT22;13090;53.422;7.670;2022-07-04T03:00:59;15.70;69.30
25108;DHT22;13090;53.422;7.670;2022-07-04T03:06:02;15.60;69.50
25108;DHT22;13090;53.422;7.670;2022-07-04T03:11:07;15.50;69.90
25108;DHT22;13090;53.422;7.670;2022-07-04T03:16:10;15.30;70.40
25108;DHT22;13090;53.422;7.670;2022-07-04T03:21:12;15.30;70.60
25108;DHT22;13090;53.422;7.670;2022-07-04T03:26:16;15.20;70.80
25108;DHT22;13090;53.422;7.670;2022-07-04T03:31:18;15.20;71.20
25108;DHT22;13090;53.422;7.670;2022-07-04T03:36:21;15.20;71.30
25108;DHT22;13090;53.422;7.670;2022-07-04T03:41:25;15.20;72.40
25108;DHT22;13090;53.422;7.670;2022-07-04T03:46:27;15.10;71.80
25108;DHT22;13090;53.422;7.670;2022-07-04T03:51:30;15.20;71.90
25108;DHT22;13090;53.422;7.670;2022-07-04T03:56:34;15.20;72.20
25108;DHT22;13090;53.422;7.670;2022-07-04T04:01:36;15.30;72.40
25108;DHT22;13090;53.422;7.670;2022-07-04T04:06:39;15.40;72.50
25108;DHT22;13090;53.422;7.670;2022-07-04T04:11:43;15.50;72.40
25108;DHT22;13090;53.422;7.670;2022-07-04T04:16:45;15.60;72.60
25108;DHT22;13090;53.422;7.670;2022-07-04T04:21:48;15.60;72.50
25108;DHT22;13090;53.422;7.670;2022-07-04T04:26:52;15.70;72.50
25108;DHT22;13090;53.422;7.670;2022-07-04T04:31:54;15.80;72.80
25108;DHT22;13090;53.422;7.670;2022-07-04T04:36:57;16.00;72.80
25108;DHT22;13090;53.422;7.670;2022-07-04T04:42:00;16.20;73.20
25108;DHT22;13090;53.422;7.670;2022-07-04T04:47:03;16.40;73.30
25108;DHT22;13090;53.422;7.670;2022-07-04T04:52:06;16.60;73.30
25108;DHT22;13090;53.422;7.670;2022-07-04T04:57:10;16.80;73.50
25108;DHT22;13090;53.422;7.670;2022-07-04T05:02:12;17.20;73.70
25108;DHT22;13090;53.422;7.670;2022-07-04T05:07:18;17.50;73.40
25108;DHT22;13090;53.422;7.670;2022-07-04T05:12:22;17.90;73.20
25108;DHT22;13090;53.422;7.670;2022-07-04T05:17:24;18.30;73.20
25108;DHT22;13090;53.422;7.670;2022-07-04T05:22:27;18.60;72.60
25108;DHT22;13090;53.422;7.670;2022-07-04T05:27:31;19.00;72.60
25108;DHT22;13090;53.422;7.670;2022-07-04T05:32:33;19.50;72.50
25108;DHT22;13090;53.422;7.670;2022-07-04T05:37:35;20.00;72.10
25108;DHT22;13090;53.422;7.670;2022-07-04T05:42:39;20.70;71.80
25108;DHT22;13090;53.422;7.670;2022-07-04T05:47:42;21.40;70.60
25108;DHT22;13090;53.422;7.670;2022-07-04T05:52:44;22.00;69.20
25108;DHT22;13090;53.422;7.670;2022-07-04T05:57:48;22.60;68.40
25108;DHT22;13090;53.422;7.670;2022-07-04T06:02:50;23.30;67.20
25108;DHT22;13090;53.422;7.670;2022-07-04T06:07:53;23.90;65.70
25108;DHT22;13090;53.422;7.670;2022-07-04T06:12:57;24.40;64.20
25108;DHT22;13090;53.422;7.670;2022-07-04T06:17:59;24.80;62.60
25108;DHT22;13090;53.422;7.670;2022-07-04T06:23:01;25.20;62.10
25108;DHT22;13090;53.422;7.670;2022-07-04T06:28:05;25.60;61.10
25108;DHT22;13090;53.422;7.670;2022-07-04T06:33:08;26.10;60.40
25108;DHT22;13090;53.422;7.670;2022-07-04T06:38:11;26.50;59.50
25108;DHT22;13090;53.422;7.670;2022-07-04T06:43:15;26.80;58.20
25108;DHT22;13090;53.422;7.670;2022-07-04T06:48:18;27.00;57.70
25108;DHT22;13090;53.422;7.670;2022-07-04T06:53:20;27.30;58.00
25108;DHT22;13090;53.422;7.670;2022-07-04T06:58:24;27.60;57.10
25108;DHT22;13090;53.422;7.670;2022-07-04T07:03:27;27.30;54.60
25108;DHT22;13090;53.422;7.670;2022-07-04T07:08:29;26.80;54.30
25108;DHT22;13090;53.422;7.670;2022-07-04T07:13:33;26.10;54.70
25108;DHT22;13090;53.422;7.670;2022-07-04T07:18:36;25.50;55.70
25108;DHT22;13090;53.422;7.670;2022-07-04T07:23:39;25.40;57.40
25108;DHT22;13090;53.422;7.670;2022-07-04T07:28:42;25.70;57.10
25108;DHT22;13090;53.422;7.670;2022-07-04T07:33:45;26.10;57.20
25108;DHT22;13090;53.422;7.670;2022-07-04T07:38:47;26.60;56.90
25108;DHT22;13090;53.422;7.670;2022-07-04T07:43:51;27.10;55.90
25108;DHT22;13090;53.422;7.670;2022-07-04T07:48:53;27.50;54.30
25108;DHT22;13090;53.422;7.670;2022-07-04T07:53:56;27.70;54.50
25108;DHT22;13090;53.422;7.670;2022-07-04T07:59:19;28.20;54.10
25108;DHT22;13090;53.422;7.670;2022-07-04T08:04:22;28.70;53.00
25108;DHT22;13090;53.422;7.670;2022-07-04T08:09:24;29.00;51.90
25108;DHT22;13090;53.422;7.670;2022-07-04T08:14:28;29.10;50.30
25108;DHT22;13090;53.422;7.670;2022-07-04T08:19:31;29.00;49.80
25108;DHT22;13090;53.422;7.670;2022-07-04T08:24:33;28.50;49.60
25108;DHT22;13090;53.422;7.670;2022-07-04T08:29:37;27.90;50.60
25108;DHT22;13090;53.422;7.670;2022-07-04T08:34:40;27.40;50.40
25108;DHT22;13090;53.422;7.670;2022-07-04T08:39:42;26.80;50.70
25108;DHT22;13090;53.422;7.670;2022-07-04T08:44:49;26.60;52.00
25108;DHT22;13090;53.422;7.670;2022-07-04T08:49:53;26.60;52.20
25108;DHT22;13090;53.422;7.670;2022-07-04T08:54:57;26.80;53.60
25108;DHT22;13090;53.422;7.670;2022-07-04T09:00:02;26.90;52.10
25108;DHT22;13090;53.422;7.670;2022-07-04T09:05:07;26.90;51.40
25108;DHT22;13090;53.422;7.670;2022-07-04T09:10:10;26.80;51.50
25108;DHT22;13090;53.422;7.670;2022-07-04T09:15:15;26.70;51.90
25108;DHT22;13090;53.422;7.670;2022-07-04T09:20:20;26.90;52.70
25108;DHT22;13090;53.422;7.670;2022-07-04T09:25:24;27.50;52.20
25108;DHT22;13090;53.422;7.670;2022-07-04T09:30:28;27.90;50.20
25108;DHT22;13090;53.422;7.670;2022-07-04T09:35:31;27.90;50.10
25108;DHT22;13090;53.422;7.670;2022-07-04T09:40:35;27.80;49.30
25108;DHT22;13090;53.422;7.670;2022-07-04T09:45:53;27.60;49.10
25108;DHT22;13090;53.422;7.670;2022-07-04T09:50:56;27.20;49.30
25108;DHT22;13090;53.422;7.670;2022-07-04T09:55:58;26.70;50.00
25108;DHT22;13090;53.422;7.670;2022-07-04T10:01:02;26.20;50.80
25108;DHT22;13090;53.422;7.670;2022-07-04T10:06:05;25.70;52.40
25108;DHT22;13090;53.422;7.670;2022-07-04T10:11:08;25.20;53.50
25108;DHT22;13090;53.422;7.670;2022-07-04T10:16:21;25.00;54.10
25108;DHT22;13090;53.422;7.670;2022-07-04T10:21:24;24.60;54.10
25108;DHT22;13090;53.422;7.670;2022-07-04T10:26:28;24.20;54.80
25108;DHT22;13090;53.422;7.670;2022-07-04T10:31:34;24.00;55.90
25108;DHT22;13090;53.422;7.670;2022-07-04T10:36:37;24.00;57.30
25108;DHT22;13090;53.422;7.670;2022-07-04T10:41:56;24.10;57.60
25108;DHT22;13090;53.422;7.670;2022-07-04T10:47:00;24.30;58.50
25108;DHT22;13090;53.422;7.670;2022-07-04T10:52:12;24.60;58.30
25108;DHT22;13090;53.422;7.670;2022-07-04T10:57:17;24.90;58.70
25108;DHT22;13090;53.422;7.670;2022-07-04T11:02:29;25.10;58.20
25108;DHT22;13090;53.422;7.670;2022-07-04T11:07:57;25.50;59.30
25108;DHT22;13090;53.422;7.670;2022-07-04T11:13:16;26.30;59.20
25108;DHT22;13090;53.422;7.670;2022-07-04T11:18:20;27.10;58.50
25108;DHT22;13090;53.422;7.670;2022-07-04T11:23:22;28.00;56.60
25108;DHT22;13090;53.422;7.670;2022-07-04T11:28:26;28.50;54.10
25108;DHT22;13090;53.422;7.670;2022-07-04T11:33:54;28.70;52.90
25108;DHT22;13090;53.422;7.670;2022-07-04T11:38:57;28.90;51.80
25108;DHT22;13090;53.422;7.670;2022-07-04T11:44:04;29.00;52.40
25108;DHT22;13090;53.422;7.670;2022-07-04T11:49:12;29.30;51.70
25108;DHT22;13090;53.422;7.670;2022-07-04T11:54:14;29.50;50.00
25108;DHT22;13090;53.422;7.670;2022-07-04T11:59:37;29.50;49.30
25108;DHT22;13090;53.422;7.670;2022-07-04T12:04:41;29.40;48.70
25108;DHT22;13090;53.422;7.670;2022-07-04T12:09:45;29.10;49.00
25108;DHT22;13090;53.422;7.670;2022-07-04T12:15:06;29.20;48.80
25108;DHT22;13090;53.422;7.670;2022-07-04T12:20:15;29.20;47.90
25108;DHT22;13090;53.422;7.670;2022-07-04T12:25:23;29.30;48.20
25108;DHT22;13090;53.422;7.670;2022-07-04T12:30:28;29.20;47.60
25108;DHT22;13090;53.422;7.670;2022-07-04T12:35:37;29.00;47.50
25108;DHT22;13090;53.422;7.670;2022-07-04T12:40:53;29.00;48.00
25108;DHT22;13090;53.422;7.670;2022-07-04T12:45:56;28.90;47.40
25108;DHT22;13090;53.422;7.670;2022-07-04T12:51:11;28.80;47.30
25108;DHT22;13090;53.422;7.670;2022-07-04T12:56:28;28.60;47.20
25108;DHT22;13090;53.422;7.670;2022-07-04T13:01:31;28.50;47.80
25108;DHT22;13090;53.422;7.670;2022-07-04T13:06:35;28.50;48.40
25108;DHT22;13090;53.422;7.670;2022-07-04T13:11:38;28.50;48.20
25108;DHT22;13090;53.422;7.670;2022-07-04T13:16:41;28.60;48.30
25108;DHT22;13090;53.422;7.670;2022-07-04T13:21:45;28.70;48.30
25108;DHT22;13090;53.422;7.670;2022-07-04T13:26:47;28.80;48.40
25108;DHT22;13090;53.422;7.670;2022-07-04T13:31:50;29.00;48.00
25108;DHT22;13090;53.422;7.670;2022-07-04T13:36:54;29.00;47.50
25108;DHT22;13090;53.422;7.670;2022-07-04T13:41:56;28.90;47.30
25108;DHT22;13090;53.422;7.670;2022-07-04T13:46:59;28.90;47.50
25108;DHT22;13090;53.422;7.670;2022-07-04T13:52:03;28.90;47.60
25108;DHT22;13090;53.422;7.670;2022-07-04T13:57:06;28.90;47.10
25108;DHT22;13090;53.422;7.670;2022-07-04T14:02:08;28.90;47.00
25108;DHT22;13090;53.422;7.670;2022-07-04T14:07:12;28.90;46.70
25108;DHT22;13090;53.422;7.670;2022-07-04T14:12:20;28.80;46.60
25108;DHT22;13090;53.422;7.670;2022-07-04T14:17:23;28.70;46.60
25108;DHT22;13090;53.422;7.670;2022-07-04T14:22:39;28.60;46.60
25108;DHT22;13090;53.422;7.670;2022-07-04T14:27:42;28.50;46.20
25108;DHT22;13090;53.422;7.670;2022-07-04T14:32:44;28.40;46.60
25108;DHT22;13090;53.422;7.670;2022-07-04T14:37:48;28.40;46.70
25108;DHT22;13090;53.422;7.670;2022-07-04T14:42:50;28.50;46.70
25108;DHT22;13090;53.422;7.670;2022-07-04T14:47:53;28.40;46.60
25108;DHT22;13090;53.422;7.670;2022-07-04T14:52:56;28.40;46.30
25108;DHT22;13090;53.422;7.670;2022-07-04T14:57:59;28.30;46.10
25108;DHT22;13090;53.422;7.670;2022-07-04T15:03:01;28.30;46.30
25108;DHT22;13090;53.422;7.670;2022-07-04T15:08:06;28.20;46.40
25108;DHT22;13090;53.422;7.670;2022-07-04T15:13:08;28.10;46.50
25108;DHT22;13090;53.422;7.670;2022-07-04T15:18:10;27.90;46.10
25108;DHT22;13090;53.422;7.670;2022-07-04T15:23:14;27.80;46.20
25108;DHT22;13090;53.422;7.670;2022-07-04T15:28:16;27.60;45.70
25108;DHT22;13090;53.422;7.670;2022-07-04T15:33:19;27.50;46.20
25108;DHT22;13090;53.422;7.670;2022-07-04T15:38:23;27.50;46.50
25108;DHT22;13090;53.422;7.670;2022-07-04T15:43:25;27.40;46.30
25108;DHT22;13090;53.422;7.670;2022-07-04T15:48:28;27.30;46.00
25108;DHT22;13090;53.422;7.670;2022-07-04T15:53:31;27.20;45.90
25108;DHT22;13090;53.422;7.670;2022-07-04T15:58:34;27.20;45.80
25108;DHT22;13090;53.422;7.670;2022-07-04T16:03:36;27.20;46.10
25108;DHT22;13090;53.422;7.670;2022-07-04T16:08:40;27.10;46.10
25108;DHT22;13090;53.422;7.670;2022-07-04T16:13:43;27.00;45.90
25108;DHT22;13090;53.422;7.670;2022-07-04T16:18:45;26.90;45.80
25108;DHT22;13090;53.422;7.670;2022-07-04T16:23:49;26.80;46.10
25108;DHT22;13090;53.422;7.670;2022-07-04T16:28:51;26.70;46.10
25108;DHT22;13090;53.422;7.670;2022-07-04T16:33:54;26.70;46.30
25108;DHT22;13090;53.422;7.670;2022-07-04T16:38:59;26.50;46.70
25108;DHT22;13090;53.422;7.670;2022-07-04T16:44:01;26.40;46.50
25108;DHT22;13090;53.422;7.670;2022-07-04T16:49:04;26.40;46.70
25108;DHT22;13090;53.422;7.670;2022-07-04T16:54:28;26.30;46.80
25108;DHT22;13090;53.422;7.670;2022-07-04T16:59:30;26.20;46.40
25108;DHT22;13090;53.422;7.670;2022-07-04T17:04:33;26.00;46.50
25108;DHT22;13090;53.422;7.670;2022-07-04T17:09:37;25.90;46.80
25108;DHT22;13090;53.422;7.670;2022-07-04T17:14:39;25.70;46.90
25108;DHT22;13090;53.422;7.670;2022-07-04T17:19:43;25.60;47.00
25108;DHT22;13090;53.422;7.670;2022-07-04T17:24:47;25.50;47.00
25108;DHT22;13090;53.422;7.670;2022-07-04T17:29:49;25.30;47.00
25108;DHT22;13090;53.422;7.670;2022-07-04T17:34:52;25.10;47.20
25108;DHT22;13090;53.422;7.670;2022-07-04T17:39:56;24.90;47.40
25108;DHT22;13090;53.422;7.670;2022-07-04T17:44:58;24.80;47.50
25108;DHT22;13090;53.422;7.670;2022-07-04T17:50:01;24.60;47.50
25108;DHT22;13090;53.422;7.670;2022-07-04T17:55:06;24.50;47.60
25108;DHT22;13090;53.422;7.670;2022-07-04T18:00:15;24.50;47.70
25108;DHT22;13090;53.422;7.670;2022-07-04T18:05:18;24.40;47.70
25108;DHT22;13090;53.422;7.670;2022-07-04T18:10:22;24.30;47.70
25108;DHT22;13090;53.422;7.670;2022-07-04T18:15:25;24.10;47.50
25108;DHT22;13090;53.422;7.670;2022-07-04T18:20:29;24.00;47.20
25108;DHT22;13090;53.422;7.670;2022-07-04T18:25:33;23.90;47.30
25108;DHT22;13090;53.422;7.670;2022-07-04T18:30:36;23.80;47.50
25108;DHT22;13090;53.422;7.670;2022-07-04T18:35:38;23.80;47.30
25108;DHT22;13090;53.422;7.670;2022-07-04T18:40:46;23.80;47.40
25108;DHT22;13090;53.422;7.670;2022-07-04T18:45:49;23.70;47.20
25108;DHT22;13090;53.422;7.670;2022-07-04T18:50:52;23.60;47.30
25108;DHT22;13090;53.422;7.670;2022-07-04T18:55:56;23.60;47.40
25108;DHT22;13090;53.422;7.670;2022-07-04T19:00:58;23.50;47.40
25108;DHT22;13090;53.422;7.670;2022-07-04T19:06:01;23.30;47.40
25108;DHT22;13090;53.422;7.670;2022-07-04T19:11:05;23.30;47.60
25108;DHT22;13090;53.422;7.670;2022-07-04T19:16:09;23.10;48.00
25108;DHT22;13090;53.422;7.670;2022-07-04T19:21:21;23.00;48.20
25108;DHT22;13090;53.422;7.670;2022-07-04T19:26:25;22.80;48.80
25108;DHT22;13090;53.422;7.670;2022-07-04T19:31:28;22.70;48.90
25108;DHT22;13090;53.422;7.670;2022-07-04T19:36:30;22.50;49.20
25108;DHT22;13090;53.422;7.670;2022-07-04T19:41:37;22.40;49.60
25108;DHT22;13090;53.422;7.670;2022-07-04T19:46:39;22.20;50.10
25108;DHT22;13090;53.422;7.670;2022-07-04T19:51:42;22.10;50.40
25108;DHT22;13090;53.422;7.670;2022-07-04T19:56:46;22.00;50.70
25108;DHT22;13090;53.422;7.670;2022-07-04T20:01:48;21.80;51.20
25108;DHT22;13090;53.422;7.670;2022-07-04T20:06:51;21.70;51.30
25108;DHT22;13090;53.422;7.670;2022-07-04T20:11:54;21.60;51.60
25108;DHT22;13090;53.422;7.670;2022-07-04T20:16:57;21.40;52.00
25108;DHT22;13090;53.422;7.670;2022-07-04T20:21:59;21.30;52.20
25108;DHT22;13090;53.422;7.670;2022-07-04T20:27:04;21.20;52.50
25108;DHT22;13090;53.422;7.670;2022-07-04T20:32:15;21.10;52.80
25108;DHT22;13090;53.422;7.670;2022-07-04T20:37:18;21.00;52.90
25108;DHT22;13090;53.422;7.670;2022-07-04T20:42:23;20.90;53.20
25108;DHT22;13090;53.422;7.670;2022-07-04T20:47:26;20.80;53.60
25108;DHT22;13090;53.422;7.670;2022-07-04T20:52:29;20.60;53.70
25108;DHT22;13090;53.422;7.670;2022-07-04T20:57:33;20.50;53.70
25108;DHT22;13090;53.422;7.670;2022-07-04T21:02:36;20.50;54.00
25108;DHT22;13090;53.422;7.670;2022-07-04T21:07:40;20.40;54.20
25108;DHT22;13090;53.422;7.670;2022-07-04T21:12:44;20.30;54.50
25108;DHT22;13090;53.422;7.670;2022-07-04T21:17:47;20.30;54.80
25108;DHT22;13090;53.422;7.670;2022-07-04T21:22:49;20.30;54.80
25108;DHT22;13090;53.422;7.670;2022-07-04T21:27:53;20.20;54.70
25108;DHT22;13090;53.422;7.670;2022-07-04T21:32:56;20.20;55.00
25108;DHT22;13090;53.422;7.670;2022-07-04T21:37:58;20.20;55.10
25108;DHT22;13090;53.422;7.670;2022-07-04T21:43:02;20.10;55.20
25108;DHT22;13090;53.422;7.670;2022-07-04T21:48:05;20.00;55.40
25108;DHT22;13090;53.422;7.670;2022-07-04T21:53:07;19.90;55.50
25108;DHT22;13090;53.422;7.670;2022-07-04T21:58:11;19.90;55.70
25108;DHT22;13090;53.422;7.670;2022-07-04T22:03:13;19.80;56.00
25108;DHT22;13090;53.422;7.670;2022-07-04T22:08:16;19.70;56.00
25108;DHT22;13090;53.422;7.670;2022-07-04T22:13:20;19.60;56.20
25108;DHT22;13090;53.422;7.670;2022-07-04T22:18:22;19.50;56.50
25108;DHT22;13090;53.422;7.670;2022-07-04T22:23:25;19.40;57.30
25108;DHT22;13090;53.422;7.670;2022-07-04T22:28:29;19.30;56.80
25108;DHT22;13090;53.422;7.670;2022-07-04T22:33:31;19.20;57.20
25108;DHT22;13090;53.422;7.670;2022-07-04T22:38:33;19.10;57.20
25108;DHT22;13090;53.422;7.670;2022-07-04T22:43:37;19.00;57.40
25108;DHT22;13090;53.422;7.670;2022-07-04T22:48:40;19.00;57.80
25108;DHT22;13090;53.422;7.670;2022-07-04T22:53:44;18.80;57.70
25108;DHT22;13090;53.422;7.670;2022-07-04T22:58:48;18.70;58.00
25108;DHT22;13090;53.422;7.670;2022-07-04T23:03:51;18.60;58.30
25108;DHT22;13090;53.422;7.670;2022-07-04T23:08:54;18.50;58.50
25108;DHT22;13090;53.422;7.670;2022-07-04T23:13:58;18.30;58.60
25108;DHT22;13090;53.422;7.670;2022-07-04T23:19:00;18.20;59.00
25108;DHT22;13090;53.422;7.670;2022-07-04T23:24:03;18.10;59.00
25108;DHT22;13090;53.422;7.670;2022-07-04T23:29:06;18.00;59.10
25108;DHT22;13090;53.422;7.670;2022-07-04T23:34:09;17.90;59.60
25108;DHT22;13090;53.422;7.670;2022-07-04T23:39:11;17.80;59.70
25108;DHT22;13090;53.422;7.670;2022-07-04T23:44:15;17.70;59.80
25108;DHT22;13090;53.422;7.670;2022-07-04T23:49:18;17.70;60.20
25108;DHT22;13090;53.422;7.670;2022-07-04T23:54:20;17.60;60.10
25108;DHT22;13090;53.422;7.670;2022-07-04T23:59:24;17.50;60.40
